sensor_id;sensor_type;location;lat;lon;timestamp;P1;durP1;ratioP1;P2;durP2;ratioP2
842;SDS011;407;48.884;9.126;2023-05-14T00:01:46;14.43;;;7.30;;
842;SDS011;407;48.884;9.126;2023-05-14T00:04:11;15.30;;;7.73;;
842;SDS011;407;48.884;9.126;2023-05-14T00:06:37;12.88;;;6.78;;
842;SDS011;407;48.884;9.126;2023-05-14T00:09:03;14.07;;;7.10;;
842;SDS011;407;48.884;9.126;2023-05-14T00:11:30;16.13;;;7.82;;
842;SDS011;407;48.884;9.126;2023-05-14T00:13:55;13.07;;;7.10;;
842;SDS011;407;48.884;9.126;2023-05-14T00:16:21;13.38;;;6.68;;
842;SDS011;407;48.884;9.126;2023-05-14T00:18:46;15.50;;;7.00;;
842;SDS011;407;48.884;9.126;2023-05-14T00:21:12;15.97;;;7.63;;
842;SDS011;407;48.884;9.126;2023-05-14T00:23:38;15.60;;;7.22;;
842;SDS011;407;48.884;9.126;2023-05-14T00:26:04;14.77;;;7.30;;
842;SDS011;407;48.884;9.126;2023-05-14T00:28:30;13.77;;;7.20;;
842;SDS011;407;48.884;9.126;2023-05-14T00:30:55;13.67;;;7.33;;
842;SDS011;407;48.884;9.126;2023-05-14T00:33:21;13.32;;;7.22;;
842;SDS011;407;48.884;9.126;2023-05-14T00:35:47;13.83;;;6.87;;
842;SDS011;407;48.884;9.126;2023-05-14T00:38:13;16.23;;;7.50;;
842;SDS011;407;48.884;9.126;2023-05-14T00:40:43;15.00;;;7.63;;
842;SDS011;407;48.884;9.126;2023-05-14T00:43:13;14.95;;;7.18;;
842;SDS011;407;48.884;9.126;2023-05-14T00:45:39;13.80;;;7.13;;
842;SDS011;407;48.884;9.126;2023-05-14T00:48:05;14.95;;;7.22;;
842;SDS011;407;48.884;9.126;2023-05-14T00:50:31;13.60;;;6.83;;
842;SDS011;407;48.884;9.126;2023-05-14T00:52:58;14.43;;;7.28;;
842;SDS011;407;48.884;9.126;2023-05-14T00:55:24;12.85;;;6.72;;
842;SDS011;407;48.884;9.126;2023-05-14T00:57:50;13.10;;;7.00;;
842;SDS011;407;48.884;9.126;2023-05-14T01:00:18;16.05;;;7.53;;
842;SDS011;407;48.884;9.126;2023-05-14T01:02:44;12.57;;;6.90;;
842;SDS011;407;48.884;9.126;2023-05-14T01:05:10;14.45;;;7.25;;
842;SDS011;407;48.884;9.126;2023-05-14T01:07:38;13.50;;;7.40;;
842;SDS011;407;48.884;9.126;2023-05-14T01:10:26;11.77;;;6.70;;
842;SDS011;407;48.884;9.126;2023-05-14T01:13:01;15.43;;;6.93;;
842;SDS011;407;48.884;9.126;2023-05-14T01:15:32;11.65;;;6.43;;
842;SDS011;407;48.884;9.126;2023-05-14T01:18:03;13.82;;;7.22;;
842;SDS011;407;48.884;9.126;2023-05-14T01:20:32;14.35;;;7.32;;
842;SDS011;407;48.884;9.126;2023-05-14T01:22:57;12.05;;;6.60;;
842;SDS011;407;48.884;9.126;2023-05-14T01:25:23;12.80;;;6.97;;
842;SDS011;407;48.884;9.126;2023-05-14T01:27:55;13.40;;;7.32;;
842;SDS011;407;48.884;9.126;2023-05-14T01:32:59;13.65;;;7.10;;
842;SDS011;407;48.884;9.126;2023-05-14T01:35:30;14.27;;;7.40;;
842;SDS011;407;48.884;9.126;2023-05-14T01:37:57;16.48;;;6.60;;
842;SDS011;407;48.884;9.126;2023-05-14T01:40:25;13.45;;;7.15;;
842;SDS011;407;48.884;9.126;2023-05-14T01:42:51;13.15;;;6.93;;
842;SDS011;407;48.884;9.126;2023-05-14T01:45:19;15.82;;;6.90;;
842;SDS011;407;48.884;9.126;2023-05-14T01:47:45;14.73;;;7.40;;
842;SDS011;407;48.884;9.126;2023-05-14T01:50:10;13.80;;;7.20;;
842;SDS011;407;48.884;9.126;2023-05-14T01:52:36;15.30;;;7.28;;
842;SDS011;407;48.884;9.126;2023-05-14T01:55:02;16.40;;;6.83;;
842;SDS011;407;48.884;9.126;2023-05-14T01:57:29;13.48;;;6.85;;
842;SDS011;407;48.884;9.126;2023-05-14T01:59:54;13.57;;;6.97;;
842;SDS011;407;48.884;9.126;2023-05-14T02:02:20;14.85;;;6.50;;
842;SDS011;407;48.884;9.126;2023-05-14T02:04:46;13.93;;;6.83;;
842;SDS011;407;48.884;9.126;2023-05-14T02:07:12;13.30;;;7.03;;
842;SDS011;407;48.884;9.126;2023-05-14T02:09:38;12.70;;;6.30;;
842;SDS011;407;48.884;9.126;2023-05-14T02:12:05;13.70;;;7.35;;
842;SDS011;407;48.884;9.126;2023-05-14T02:14:31;12.82;;;6.88;;
842;SDS011;407;48.884;9.126;2023-05-14T02:16:57;16.50;;;7.05;;
842;SDS011;407;48.884;9.126;2023-05-14T02:19:23;16.30;;;7.47;;
842;SDS011;407;48.884;9.126;2023-05-14T02:21:48;16.03;;;7.50;;
842;SDS011;407;48.884;9.126;2023-05-14T02:24:14;13.30;;;6.80;;
842;SDS011;407;48.884;9.126;2023-05-14T02:26:40;13.37;;;7.57;;
842;SDS011;407;48.884;9.126;2023-05-14T02:29:06;14.90;;;6.93;;
842;SDS011;407;48.884;9.126;2023-05-14T02:31:32;14.38;;;7.15;;
842;SDS011;407;48.884;9.126;2023-05-14T02:33:57;16.07;;;7.33;;
842;SDS011;407;48.884;9.126;2023-05-14T02:36:24;12.98;;;6.95;;
842;SDS011;407;48.884;9.126;2023-05-14T02:38:50;13.10;;;6.80;;
842;SDS011;407;48.884;9.126;2023-05-14T02:41:16;12.30;;;6.53;;
842;SDS011;407;48.884;9.126;2023-05-14T02:43:41;13.00;;;7.07;;
842;SDS011;407;48.884;9.126;2023-05-14T02:46:07;13.50;;;6.90;;
842;SDS011;407;48.884;9.126;2023-05-14T02:48:32;13.97;;;6.97;;
842;SDS011;407;48.884;9.126;2023-05-14T02:50:58;15.73;;;7.07;;
842;SDS011;407;48.884;9.126;2023-05-14T02:53:24;14.23;;;6.78;;
842;SDS011;407;48.884;9.126;2023-05-14T02:55:49;11.90;;;5.97;;
842;SDS011;407;48.884;9.126;2023-05-14T02:58:15;13.18;;;6.45;;
842;SDS011;407;48.884;9.126;2023-05-14T03:00:41;12.10;;;6.53;;
842;SDS011;407;48.884;9.126;2023-05-14T03:03:06;14.65;;;6.38;;
842;SDS011;407;48.884;9.126;2023-05-14T03:05:32;14.80;;;6.40;;
842;SDS011;407;48.884;9.126;2023-05-14T03:07:57;13.40;;;6.80;;
842;SDS011;407;48.884;9.126;2023-05-14T03:10:23;12.63;;;6.90;;
842;SDS011;407;48.884;9.126;2023-05-14T03:12:48;12.10;;;6.80;;
842;SDS011;407;48.884;9.126;2023-05-14T03:15:14;13.10;;;6.60;;
842;SDS011;407;48.884;9.126;2023-05-14T03:17:40;13.75;;;6.43;;
842;SDS011;407;48.884;9.126;2023-05-14T03:20:05;13.00;;;6.13;;
842;SDS011;407;48.884;9.126;2023-05-14T03:22:31;14.65;;;6.75;;
842;SDS011;407;48.884;9.126;2023-05-14T03:24:59;12.00;;;6.50;;
842;SDS011;407;48.884;9.126;2023-05-14T03:27:25;12.38;;;6.55;;
842;SDS011;407;48.884;9.126;2023-05-14T03:29:50;11.83;;;6.00;;
842;SDS011;407;48.884;9.126;2023-05-14T03:32:16;12.47;;;6.60;;
842;SDS011;407;48.884;9.126;2023-05-14T03:34:42;12.93;;;6.43;;
842;SDS011;407;48.884;9.126;2023-05-14T03:37:08;12.13;;;6.18;;
842;SDS011;407;48.884;9.126;2023-05-14T03:39:34;12.40;;;6.22;;
842;SDS011;407;48.884;9.126;2023-05-14T03:42:00;11.27;;;5.60;;
842;SDS011;407;48.884;9.126;2023-05-14T03:44:26;12.10;;;5.93;;
842;SDS011;407;48.884;9.126;2023-05-14T03:46:51;13.40;;;6.20;;
842;SDS011;407;48.884;9.126;2023-05-14T03:49:17;11.55;;;6.22;;
842;SDS011;407;48.884;9.126;2023-05-14T03:51:42;12.60;;;6.27;;
842;SDS011;407;48.884;9.126;2023-05-14T03:54:08;11.32;;;5.28;;
842;SDS011;407;48.884;9.126;2023-05-14T03:56:34;11.10;;;5.60;;
842;SDS011;407;48.884;9.126;2023-05-14T03:59:00;11.83;;;5.80;;
842;SDS011;407;48.884;9.126;2023-05-14T04:01:26;12.48;;;6.05;;
842;SDS011;407;48.884;9.126;2023-05-14T04:03:51;11.90;;;6.00;;
842;SDS011;407;48.884;9.126;2023-05-14T04:06:17;13.53;;;5.87;;
842;SDS011;407;48.884;9.126;2023-05-14T04:08:43;12.50;;;6.90;;
842;SDS011;407;48.884;9.126;2023-05-14T04:11:09;11.38;;;5.47;;
842;SDS011;407;48.884;9.126;2023-05-14T04:13:34;12.40;;;6.38;;
842;SDS011;407;48.884;9.126;2023-05-14T04:16:00;12.63;;;5.90;;
842;SDS011;407;48.884;9.126;2023-05-14T04:18:25;11.38;;;5.53;;
842;SDS011;407;48.884;9.126;2023-05-14T04:20:51;12.43;;;6.30;;
842;SDS011;407;48.884;9.126;2023-05-14T04:23:16;11.67;;;5.60;;
842;SDS011;407;48.884;9.126;2023-05-14T04:25:42;12.25;;;6.35;;
842;SDS011;407;48.884;9.126;2023-05-14T04:28:07;11.55;;;5.70;;
842;SDS011;407;48.884;9.126;2023-05-14T04:30:33;10.50;;;5.10;;
842;SDS011;407;48.884;9.126;2023-05-14T04:32:59;10.90;;;5.60;;
842;SDS011;407;48.884;9.126;2023-05-14T04:35:24;12.57;;;5.20;;
842;SDS011;407;48.884;9.126;2023-05-14T04:37:50;12.30;;;6.00;;
842;SDS011;407;48.884;9.126;2023-05-14T04:40:15;14.23;;;5.57;;
842;SDS011;407;48.884;9.126;2023-05-14T04:42:41;12.30;;;5.90;;
842;SDS011;407;48.884;9.126;2023-05-14T04:45:07;13.95;;;6.28;;
842;SDS011;407;48.884;9.126;2023-05-14T04:47:33;44.75;;;29.02;;
842;SDS011;407;48.884;9.126;2023-05-14T04:49:59;15.25;;;8.98;;
842;SDS011;407;48.884;9.126;2023-05-14T04:52:25;11.40;;;5.23;;
842;SDS011;407;48.884;9.126;2023-05-14T04:54:51;12.02;;;6.00;;
842;SDS011;407;48.884;9.126;2023-05-14T04:57:17;12.00;;;6.10;;
842;SDS011;407;48.884;9.126;2023-05-14T04:59:42;10.20;;;5.53;;
842;SDS011;407;48.884;9.126;2023-05-14T05:02:08;11.23;;;5.65;;
842;SDS011;407;48.884;9.126;2023-05-14T05:04:33;11.00;;;5.23;;
842;SDS011;407;48.884;9.126;2023-05-14T05:06:59;11.80;;;5.90;;
842;SDS011;407;48.884;9.126;2023-05-14T05:09:25;11.10;;;5.30;;
842;SDS011;407;48.884;9.126;2023-05-14T05:11:50;11.57;;;5.87;;
842;SDS011;407;48.884;9.126;2023-05-14T05:14:16;13.25;;;7.35;;
842;SDS011;407;48.884;9.126;2023-05-14T05:16:41;11.00;;;5.63;;
842;SDS011;407;48.884;9.126;2023-05-14T05:19:07;12.40;;;6.30;;
842;SDS011;407;48.884;9.126;2023-05-14T05:21:33;14.10;;;5.45;;
842;SDS011;407;48.884;9.126;2023-05-14T05:23:59;11.30;;;5.50;;
842;SDS011;407;48.884;9.126;2023-05-14T05:26:25;11.40;;;5.65;;
842;SDS011;407;48.884;9.126;2023-05-14T05:28:51;12.23;;;5.10;;
842;SDS011;407;48.884;9.126;2023-05-14T05:31:16;14.80;;;5.90;;
842;SDS011;407;48.884;9.126;2023-05-14T05:33:42;10.85;;;5.03;;
842;SDS011;407;48.884;9.126;2023-05-14T05:36:08;11.32;;;6.00;;
842;SDS011;407;48.884;9.126;2023-05-14T05:38:33;9.90;;;5.22;;
842;SDS011;407;48.884;9.126;2023-05-14T05:40:59;12.40;;;5.93;;
842;SDS011;407;48.884;9.126;2023-05-14T05:43:25;10.63;;;5.18;;
842;SDS011;407;48.884;9.126;2023-05-14T05:45:52;12.00;;;5.68;;
842;SDS011;407;48.884;9.126;2023-05-14T05:48:18;13.80;;;5.40;;
842;SDS011;407;48.884;9.126;2023-05-14T05:50:45;10.47;;;5.10;;
842;SDS011;407;48.884;9.126;2023-05-14T05:53:12;11.65;;;5.57;;
842;SDS011;407;48.884;9.126;2023-05-14T05:55:40;12.85;;;5.05;;
842;SDS011;407;48.884;9.126;2023-05-14T05:58:06;11.97;;;5.30;;
842;SDS011;407;48.884;9.126;2023-05-14T06:00:31;12.05;;;5.32;;
842;SDS011;407;48.884;9.126;2023-05-14T06:02:57;13.63;;;5.82;;
842;SDS011;407;48.884;9.126;2023-05-14T06:05:23;12.40;;;6.30;;
842;SDS011;407;48.884;9.126;2023-05-14T06:07:48;13.77;;;5.85;;
842;SDS011;407;48.884;9.126;2023-05-14T06:10:14;12.80;;;5.68;;
842;SDS011;407;48.884;9.126;2023-05-14T06:12:39;15.47;;;6.40;;
842;SDS011;407;48.884;9.126;2023-05-14T06:15:05;12.32;;;6.05;;
842;SDS011;407;48.884;9.126;2023-05-14T06:17:33;11.25;;;5.43;;
842;SDS011;407;48.884;9.126;2023-05-14T06:19:58;11.57;;;5.28;;
842;SDS011;407;48.884;9.126;2023-05-14T06:22:24;12.43;;;5.95;;
842;SDS011;407;48.884;9.126;2023-05-14T06:24:49;13.67;;;6.40;;
842;SDS011;407;48.884;9.126;2023-05-14T06:27:15;11.90;;;5.33;;
842;SDS011;407;48.884;9.126;2023-05-14T06:29:40;11.60;;;5.82;;
842;SDS011;407;48.884;9.126;2023-05-14T06:32:06;10.27;;;5.50;;
842;SDS011;407;48.884;9.126;2023-05-14T06:34:32;12.20;;;5.50;;
842;SDS011;407;48.884;9.126;2023-05-14T06:36:58;12.40;;;6.20;;
842;SDS011;407;48.884;9.126;2023-05-14T06:39:24;13.80;;;8.27;;
842;SDS011;407;48.884;9.126;2023-05-14T06:41:49;11.60;;;5.70;;
842;SDS011;407;48.884;9.126;2023-05-14T06:44:17;13.00;;;6.20;;
842;SDS011;407;48.884;9.126;2023-05-14T06:46:43;11.95;;;5.78;;
842;SDS011;407;48.884;9.126;2023-05-14T06:49:08;11.90;;;5.40;;
842;SDS011;407;48.884;9.126;2023-05-14T06:51:34;12.50;;;6.07;;
842;SDS011;407;48.884;9.126;2023-05-14T06:54:00;13.10;;;5.50;;
842;SDS011;407;48.884;9.126;2023-05-14T06:56:25;11.90;;;5.93;;
842;SDS011;407;48.884;9.126;2023-05-14T06:58:51;12.23;;;5.45;;
842;SDS011;407;48.884;9.126;2023-05-14T07:01:17;12.33;;;5.70;;
842;SDS011;407;48.884;9.126;2023-05-14T07:03:42;12.37;;;5.77;;
842;SDS011;407;48.884;9.126;2023-05-14T07:06:08;13.00;;;6.00;;
842;SDS011;407;48.884;9.126;2023-05-14T07:08:33;11.55;;;5.82;;
842;SDS011;407;48.884;9.126;2023-05-14T07:11:00;14.13;;;5.97;;
842;SDS011;407;48.884;9.126;2023-05-14T07:13:25;11.50;;;6.20;;
842;SDS011;407;48.884;9.126;2023-05-14T07:15:52;12.70;;;5.90;;
842;SDS011;407;48.884;9.126;2023-05-14T07:18:20;11.73;;;6.60;;
842;SDS011;407;48.884;9.126;2023-05-14T07:20:46;12.52;;;6.55;;
842;SDS011;407;48.884;9.126;2023-05-14T07:23:11;13.07;;;6.60;;
842;SDS011;407;48.884;9.126;2023-05-14T07:25:37;11.88;;;5.93;;
842;SDS011;407;48.884;9.126;2023-05-14T07:28:03;11.83;;;5.87;;
842;SDS011;407;48.884;9.126;2023-05-14T07:30:28;12.80;;;6.10;;
842;SDS011;407;48.884;9.126;2023-05-14T07:32:54;12.95;;;6.43;;
842;SDS011;407;48.884;9.126;2023-05-14T07:35:20;11.50;;;5.53;;
842;SDS011;407;48.884;9.126;2023-05-14T07:37:46;12.63;;;6.50;;
842;SDS011;407;48.884;9.126;2023-05-14T07:40:11;12.18;;;6.35;;
842;SDS011;407;48.884;9.126;2023-05-14T07:42:37;12.10;;;5.93;;
842;SDS011;407;48.884;9.126;2023-05-14T07:45:03;13.40;;;6.37;;
842;SDS011;407;48.884;9.126;2023-05-14T07:47:29;11.40;;;5.95;;
842;SDS011;407;48.884;9.126;2023-05-14T07:49:55;12.38;;;6.55;;
842;SDS011;407;48.884;9.126;2023-05-14T07:52:21;11.18;;;6.40;;
842;SDS011;407;48.884;9.126;2023-05-14T07:54:49;12.23;;;8.27;;
842;SDS011;407;48.884;9.126;2023-05-14T07:57:15;12.65;;;9.63;;
842;SDS011;407;48.884;9.126;2023-05-14T07:59:41;13.32;;;10.80;;
842;SDS011;407;48.884;9.126;2023-05-14T08:02:08;11.43;;;6.47;;
842;SDS011;407;48.884;9.126;2023-05-14T08:04:36;14.88;;;13.30;;
842;SDS011;407;48.884;9.126;2023-05-14T08:07:02;13.75;;;12.07;;
842;SDS011;407;48.884;9.126;2023-05-14T08:09:28;14.40;;;11.40;;
842;SDS011;407;48.884;9.126;2023-05-14T08:11:53;16.20;;;11.40;;
842;SDS011;407;48.884;9.126;2023-05-14T08:14:19;11.80;;;9.60;;
842;SDS011;407;48.884;9.126;2023-05-14T08:16:45;13.33;;;9.50;;
842;SDS011;407;48.884;9.126;2023-05-14T08:19:12;14.70;;;8.75;;
842;SDS011;407;48.884;9.126;2023-05-14T08:21:37;13.03;;;8.50;;
842;SDS011;407;48.884;9.126;2023-05-14T08:24:03;12.57;;;7.83;;
842;SDS011;407;48.884;9.126;2023-05-14T08:26:29;12.68;;;7.97;;
842;SDS011;407;48.884;9.126;2023-05-14T08:28:54;13.10;;;7.80;;
842;SDS011;407;48.884;9.126;2023-05-14T08:31:20;13.40;;;7.80;;
842;SDS011;407;48.884;9.126;2023-05-14T08:33:45;14.67;;;8.30;;
842;SDS011;407;48.884;9.126;2023-05-14T08:36:11;12.60;;;7.47;;
842;SDS011;407;48.884;9.126;2023-05-14T08:38:36;13.40;;;7.30;;
842;SDS011;407;48.884;9.126;2023-05-14T08:41:02;12.93;;;7.00;;
842;SDS011;407;48.884;9.126;2023-05-14T08:43:40;13.07;;;7.50;;
842;SDS011;407;48.884;9.126;2023-05-14T08:46:08;14.35;;;7.20;;
842;SDS011;407;48.884;9.126;2023-05-14T08:48:37;11.65;;;6.95;;
842;SDS011;407;48.884;9.126;2023-05-14T08:51:06;13.00;;;7.22;;
842;SDS011;407;48.884;9.126;2023-05-14T08:53:32;14.73;;;7.00;;
842;SDS011;407;48.884;9.126;2023-05-14T08:55:59;12.40;;;6.68;;
842;SDS011;407;48.884;9.126;2023-05-14T08:58:25;12.20;;;6.80;;
842;SDS011;407;48.884;9.126;2023-05-14T09:00:52;13.07;;;6.97;;
842;SDS011;407;48.884;9.126;2023-05-14T09:03:19;13.38;;;7.50;;
842;SDS011;407;48.884;9.126;2023-05-14T09:05:45;13.40;;;7.55;;
842;SDS011;407;48.884;9.126;2023-05-14T09:08:13;14.52;;;7.60;;
842;SDS011;407;48.884;9.126;2023-05-14T09:10:40;13.80;;;7.45;;
842;SDS011;407;48.884;9.126;2023-05-14T09:13:05;12.98;;;6.88;;
842;SDS011;407;48.884;9.126;2023-05-14T09:15:31;12.63;;;7.32;;
842;SDS011;407;48.884;9.126;2023-05-14T09:17:59;12.27;;;6.70;;
842;SDS011;407;48.884;9.126;2023-05-14T09:20:24;12.95;;;7.38;;
842;SDS011;407;48.884;9.126;2023-05-14T09:22:53;12.90;;;7.10;;
842;SDS011;407;48.884;9.126;2023-05-14T09:25:19;11.60;;;6.90;;
842;SDS011;407;48.884;9.126;2023-05-14T09:27:50;13.73;;;7.22;;
842;SDS011;407;48.884;9.126;2023-05-14T09:30:16;12.80;;;7.10;;
842;SDS011;407;48.884;9.126;2023-05-14T09:32:42;14.37;;;7.80;;
842;SDS011;407;48.884;9.126;2023-05-14T09:35:13;13.00;;;7.80;;
842;SDS011;407;48.884;9.126;2023-05-14T09:37:41;13.07;;;7.93;;
842;SDS011;407;48.884;9.126;2023-05-14T09:40:11;14.77;;;7.40;;
842;SDS011;407;48.884;9.126;2023-05-14T09:42:38;14.23;;;7.70;;
842;SDS011;407;48.884;9.126;2023-05-14T09:45:06;11.95;;;6.30;;
842;SDS011;407;48.884;9.126;2023-05-14T09:47:33;12.50;;;7.00;;
842;SDS011;407;48.884;9.126;2023-05-14T09:49:59;12.83;;;7.40;;
842;SDS011;407;48.884;9.126;2023-05-14T09:52:24;12.55;;;6.90;;
842;SDS011;407;48.884;9.126;2023-05-14T09:54:53;11.23;;;6.35;;
842;SDS011;407;48.884;9.126;2023-05-14T09:57:19;12.70;;;7.80;;
842;SDS011;407;48.884;9.126;2023-05-14T09:59:45;11.70;;;8.10;;
842;SDS011;407;48.884;9.126;2023-05-14T10:02:21;12.40;;;8.50;;
842;SDS011;407;48.884;9.126;2023-05-14T10:04:51;11.20;;;7.50;;
842;SDS011;407;48.884;9.126;2023-05-14T10:07:21;12.48;;;7.68;;
842;SDS011;407;48.884;9.126;2023-05-14T10:09:56;11.82;;;6.90;;
842;SDS011;407;48.884;9.126;2023-05-14T10:12:27;10.63;;;6.35;;
842;SDS011;407;48.884;9.126;2023-05-14T10:14:57;11.73;;;6.80;;
842;SDS011;407;48.884;9.126;2023-05-14T10:17:28;12.52;;;6.60;;
842;SDS011;407;48.884;9.126;2023-05-14T10:19:56;12.45;;;6.65;;
842;SDS011;407;48.884;9.126;2023-05-14T10:22:26;11.55;;;6.20;;
842;SDS011;407;48.884;9.126;2023-05-14T10:24:55;12.57;;;6.67;;
842;SDS011;407;48.884;9.126;2023-05-14T10:27:21;12.50;;;6.65;;
842;SDS011;407;48.884;9.126;2023-05-14T10:29:51;12.68;;;6.70;;
842;SDS011;407;48.884;9.126;2023-05-14T10:32:22;11.82;;;6.45;;
842;SDS011;407;48.884;9.126;2023-05-14T10:34:49;14.77;;;6.72;;
842;SDS011;407;48.884;9.126;2023-05-14T10:37:17;12.88;;;5.80;;
842;SDS011;407;48.884;9.126;2023-05-14T10:39:46;13.82;;;6.03;;
842;SDS011;407;48.884;9.126;2023-05-14T10:42:24;12.90;;;6.53;;
842;SDS011;407;48.884;9.126;2023-05-14T10:45:04;12.63;;;6.20;;
842;SDS011;407;48.884;9.126;2023-05-14T10:47:32;11.68;;;6.30;;
842;SDS011;407;48.884;9.126;2023-05-14T10:50:01;11.07;;;5.70;;
842;SDS011;407;48.884;9.126;2023-05-14T10:52:28;11.50;;;6.35;;
842;SDS011;407;48.884;9.126;2023-05-14T10:54:55;12.40;;;5.70;;
842;SDS011;407;48.884;9.126;2023-05-14T10:57:28;12.63;;;6.45;;
842;SDS011;407;48.884;9.126;2023-05-14T10:59:56;11.80;;;6.78;;
842;SDS011;407;48.884;9.126;2023-05-14T11:02:25;12.43;;;6.70;;
842;SDS011;407;48.884;9.126;2023-05-14T11:07:23;12.68;;;6.47;;
842;SDS011;407;48.884;9.126;2023-05-14T11:10:03;11.25;;;5.55;;
842;SDS011;407;48.884;9.126;2023-05-14T11:12:30;13.87;;;6.30;;
842;SDS011;407;48.884;9.126;2023-05-14T11:15:02;10.85;;;5.40;;
842;SDS011;407;48.884;9.126;2023-05-14T11:17:36;13.35;;;5.47;;
842;SDS011;407;48.884;9.126;2023-05-14T11:20:04;11.20;;;5.30;;
842;SDS011;407;48.884;9.126;2023-05-14T11:22:31;9.83;;;4.93;;
842;SDS011;407;48.884;9.126;2023-05-14T11:24:57;11.43;;;6.30;;
842;SDS011;407;48.884;9.126;2023-05-14T11:27:23;10.87;;;5.40;;
842;SDS011;407;48.884;9.126;2023-05-14T11:29:48;9.35;;;4.90;;
842;SDS011;407;48.884;9.126;2023-05-14T11:32:15;10.73;;;5.70;;
842;SDS011;407;48.884;9.126;2023-05-14T11:34:42;11.73;;;5.60;;
842;SDS011;407;48.884;9.126;2023-05-14T11:37:11;8.60;;;4.30;;
842;SDS011;407;48.884;9.126;2023-05-14T11:39:38;9.10;;;4.97;;
842;SDS011;407;48.884;9.126;2023-05-14T11:42:10;9.43;;;5.03;;
842;SDS011;407;48.884;9.126;2023-05-14T11:44:38;9.53;;;4.20;;
842;SDS011;407;48.884;9.126;2023-05-14T11:47:05;9.60;;;4.60;;
842;SDS011;407;48.884;9.126;2023-05-14T11:49:31;9.68;;;4.30;;
842;SDS011;407;48.884;9.126;2023-05-14T11:52:00;9.32;;;4.43;;
842;SDS011;407;48.884;9.126;2023-05-14T11:54:27;8.38;;;4.20;;
842;SDS011;407;48.884;9.126;2023-05-14T11:56:54;9.32;;;4.85;;
842;SDS011;407;48.884;9.126;2023-05-14T11:59:24;9.18;;;4.35;;
842;SDS011;407;48.884;9.126;2023-05-14T12:01:51;11.32;;;5.70;;
842;SDS011;407;48.884;9.126;2023-05-14T12:04:17;11.55;;;5.10;;
842;SDS011;407;48.884;9.126;2023-05-14T12:06:46;8.70;;;4.60;;
842;SDS011;407;48.884;9.126;2023-05-14T12:09:19;9.07;;;4.45;;
842;SDS011;407;48.884;9.126;2023-05-14T12:11:46;9.65;;;4.53;;
842;SDS011;407;48.884;9.126;2023-05-14T12:16:43;10.52;;;4.90;;
842;SDS011;407;48.884;9.126;2023-05-14T12:19:10;12.18;;;5.57;;
842;SDS011;407;48.884;9.126;2023-05-14T12:21:38;9.35;;;4.65;;
842;SDS011;407;48.884;9.126;2023-05-14T12:24:08;8.82;;;4.30;;
842;SDS011;407;48.884;9.126;2023-05-14T12:26:37;9.50;;;4.50;;
842;SDS011;407;48.884;9.126;2023-05-14T12:29:03;9.00;;;4.90;;
842;SDS011;407;48.884;9.126;2023-05-14T12:31:30;8.80;;;4.40;;
842;SDS011;407;48.884;9.126;2023-05-14T12:34:00;8.75;;;4.28;;
842;SDS011;407;48.884;9.126;2023-05-14T12:36:27;9.43;;;4.28;;
842;SDS011;407;48.884;9.126;2023-05-14T12:39:00;11.17;;;4.93;;
842;SDS011;407;48.884;9.126;2023-05-14T12:41:28;8.77;;;4.10;;
842;SDS011;407;48.884;9.126;2023-05-14T12:43:55;9.48;;;4.07;;
842;SDS011;407;48.884;9.126;2023-05-14T12:46:21;8.77;;;4.30;;
842;SDS011;407;48.884;9.126;2023-05-14T12:48:47;9.40;;;4.20;;
842;SDS011;407;48.884;9.126;2023-05-14T12:51:12;9.30;;;3.87;;
842;SDS011;407;48.884;9.126;2023-05-14T12:53:38;8.48;;;4.15;;
842;SDS011;407;48.884;9.126;2023-05-14T12:56:05;8.65;;;4.35;;
842;SDS011;407;48.884;9.126;2023-05-14T12:58:31;7.47;;;3.53;;
842;SDS011;407;48.884;9.126;2023-05-14T13:00:56;8.20;;;3.80;;
842;SDS011;407;48.884;9.126;2023-05-14T13:03:22;7.20;;;3.70;;
842;SDS011;407;48.884;9.126;2023-05-14T13:05:49;8.40;;;3.70;;
842;SDS011;407;48.884;9.126;2023-05-14T13:08:16;7.10;;;3.10;;
842;SDS011;407;48.884;9.126;2023-05-14T13:10:45;7.72;;;3.65;;
842;SDS011;407;48.884;9.126;2023-05-14T13:13:13;7.80;;;3.70;;
842;SDS011;407;48.884;9.126;2023-05-14T13:15:39;9.53;;;4.40;;
842;SDS011;407;48.884;9.126;2023-05-14T13:18:05;8.15;;;4.20;;
842;SDS011;407;48.884;9.126;2023-05-14T13:20:31;7.80;;;3.83;;
842;SDS011;407;48.884;9.126;2023-05-14T13:22:58;7.72;;;3.40;;
842;SDS011;407;48.884;9.126;2023-05-14T13:25:23;8.20;;;3.83;;
842;SDS011;407;48.884;9.126;2023-05-14T13:27:49;7.88;;;3.92;;
842;SDS011;407;48.884;9.126;2023-05-14T13:30:18;8.57;;;3.73;;
842;SDS011;407;48.884;9.126;2023-05-14T13:32:44;7.20;;;3.30;;
842;SDS011;407;48.884;9.126;2023-05-14T13:35:10;9.00;;;3.87;;
842;SDS011;407;48.884;9.126;2023-05-14T13:37:36;8.00;;;3.50;;
842;SDS011;407;48.884;9.126;2023-05-14T13:40:04;8.05;;;3.30;;
842;SDS011;407;48.884;9.126;2023-05-14T13:42:33;7.13;;;3.07;;
842;SDS011;407;48.884;9.126;2023-05-14T13:44:59;7.70;;;3.60;;
842;SDS011;407;48.884;9.126;2023-05-14T13:47:24;7.80;;;3.50;;
842;SDS011;407;48.884;9.126;2023-05-14T13:49:53;7.20;;;3.60;;
842;SDS011;407;48.884;9.126;2023-05-14T13:52:20;7.22;;;3.25;;
842;SDS011;407;48.884;9.126;2023-05-14T13:54:46;8.40;;;3.90;;
842;SDS011;407;48.884;9.126;2023-05-14T13:57:12;7.72;;;3.42;;
842;SDS011;407;48.884;9.126;2023-05-14T13:59:37;7.72;;;3.78;;
842;SDS011;407;48.884;9.126;2023-05-14T14:02:03;7.20;;;3.63;;
842;SDS011;407;48.884;9.126;2023-05-14T14:04:29;8.27;;;4.10;;
842;SDS011;407;48.884;9.126;2023-05-14T14:06:55;9.07;;;4.18;;
842;SDS011;407;48.884;9.126;2023-05-14T14:09:21;8.50;;;3.75;;
842;SDS011;407;48.884;9.126;2023-05-14T14:11:46;7.82;;;3.90;;
842;SDS011;407;48.884;9.126;2023-05-14T14:14:12;8.40;;;4.13;;
842;SDS011;407;48.884;9.126;2023-05-14T14:16:38;9.00;;;3.95;;
842;SDS011;407;48.884;9.126;2023-05-14T14:19:04;7.40;;;3.43;;
842;SDS011;407;48.884;9.126;2023-05-14T14:21:30;11.13;;;4.25;;
842;SDS011;407;48.884;9.126;2023-05-14T14:23:56;7.50;;;3.53;;
842;SDS011;407;48.884;9.126;2023-05-14T14:26:22;8.25;;;3.63;;
842;SDS011;407;48.884;9.126;2023-05-14T14:28:48;8.33;;;3.50;;
842;SDS011;407;48.884;9.126;2023-05-14T14:31:15;8.90;;;3.80;;
842;SDS011;407;48.884;9.126;2023-05-14T14:33:41;8.05;;;3.63;;
842;SDS011;407;48.884;9.126;2023-05-14T14:36:07;8.50;;;3.97;;
842;SDS011;407;48.884;9.126;2023-05-14T14:38:33;8.98;;;3.58;;
842;SDS011;407;48.884;9.126;2023-05-14T14:40:58;8.10;;;3.53;;
842;SDS011;407;48.884;9.126;2023-05-14T14:43:27;8.73;;;4.07;;
842;SDS011;407;48.884;9.126;2023-05-14T14:45:52;7.80;;;3.58;;
842;SDS011;407;48.884;9.126;2023-05-14T14:48:28;7.88;;;3.70;;
842;SDS011;407;48.884;9.126;2023-05-14T14:51:01;7.68;;;3.53;;
842;SDS011;407;48.884;9.126;2023-05-14T14:53:28;7.53;;;3.30;;
842;SDS011;407;48.884;9.126;2023-05-14T14:55:54;7.07;;;3.30;;
842;SDS011;407;48.884;9.126;2023-05-14T14:58:21;7.90;;;3.50;;
842;SDS011;407;48.884;9.126;2023-05-14T15:00:48;8.30;;;3.78;;
842;SDS011;407;48.884;9.126;2023-05-14T15:03:16;8.25;;;3.67;;
842;SDS011;407;48.884;9.126;2023-05-14T15:05:42;8.63;;;3.60;;
842;SDS011;407;48.884;9.126;2023-05-14T15:08:08;7.40;;;3.67;;
842;SDS011;407;48.884;9.126;2023-05-14T15:10:34;7.13;;;3.30;;
842;SDS011;407;48.884;9.126;2023-05-14T15:13:03;7.30;;;3.42;;
842;SDS011;407;48.884;9.126;2023-05-14T15:15:30;7.25;;;3.20;;
842;SDS011;407;48.884;9.126;2023-05-14T15:17:57;6.75;;;2.70;;
842;SDS011;407;48.884;9.126;2023-05-14T15:20:22;7.53;;;3.35;;
842;SDS011;407;48.884;9.126;2023-05-14T15:22:48;7.68;;;3.80;;
842;SDS011;407;48.884;9.126;2023-05-14T15:25:16;9.37;;;3.60;;
842;SDS011;407;48.884;9.126;2023-05-14T15:27:45;7.80;;;3.50;;
842;SDS011;407;48.884;9.126;2023-05-14T15:30:11;7.80;;;3.20;;
842;SDS011;407;48.884;9.126;2023-05-14T15:32:37;6.80;;;3.20;;
842;SDS011;407;48.884;9.126;2023-05-14T15:35:03;7.65;;;3.58;;
842;SDS011;407;48.884;9.126;2023-05-14T15:37:40;8.02;;;3.70;;
842;SDS011;407;48.884;9.126;2023-05-14T15:40:07;8.30;;;3.53;;